Terminal Aerodrome Forecast
Issued by NWS

Home | Current Version | Previous Version | Text Only | Print | Product List | Glossary On
Versions: 1 2 3 4 5 6 7 8 9 10 11 12 13 14 15 16 17 18 19 20 21
000
FTUS46 KSEW 271700
TAFHQM
TAF
KHQM 271729Z 2718/2818 18003KT 1SM BR VCSH OVC004
     FM272100 25005KT 4SM -RA BR OVC007
     FM280600 01003KT 4SM BR OVC007=

USA.gov is the U.S. government's official web portal to all federal, state and local government web resources and services.